createdAt,value
2019-01-08T00:01:36.541Z,4.59
2019-01-08T00:04:06.905Z,4.62
2019-01-08T00:06:40.032Z,4.60
2019-01-08T00:09:11.884Z,4.84
2019-01-08T00:11:41.996Z,5.26
2019-01-08T00:14:11.245Z,5.37
2019-01-08T00:16:41.856Z,5.43
2019-01-08T00:19:11.390Z,5.50
2019-01-08T00:21:41.634Z,5.50
2019-01-08T00:24:11.171Z,5.56
2019-01-08T00:26:40.968Z,5.55
2019-01-08T00:29:10.509Z,5.59
2019-01-08T00:31:39.738Z,5.60
2019-01-08T00:34:11.198Z,5.57
2019-01-08T00:36:41.560Z,5.58
2019-01-08T00:39:12.176Z,5.62
2019-01-08T00:41:41.657Z,5.58
2019-01-08T00:44:11.440Z,5.64
2019-01-08T00:46:41.554Z,5.62
2019-01-08T00:49:12.330Z,5.62
2019-01-08T00:51:42.901Z,5.63
2019-01-08T00:54:15.041Z,5.61
2019-01-08T00:56:46.484Z,5.61
2019-01-08T00:59:16.099Z,5.62
2019-01-08T01:01:49.785Z,5.61
2019-01-08T01:04:19.337Z,5.69
2019-01-08T01:06:48.933Z,5.59
2019-01-08T01:09:19.858Z,5.60
2019-01-08T01:11:49.843Z,5.64
2019-01-08T01:14:19.116Z,5.63
2019-01-08T01:16:49.465Z,5.70
2019-01-08T01:19:21.918Z,5.69
2019-01-08T01:21:52.180Z,5.78
2019-01-08T01:24:25.757Z,5.73
2019-01-08T01:26:58.974Z,5.79
2019-01-08T01:29:28.528Z,5.86
2019-01-08T01:31:59.260Z,5.80
2019-01-08T01:34:28.867Z,5.88
2019-01-08T01:36:58.091Z,5.83
2019-01-08T01:39:27.706Z,5.85
2019-01-08T01:41:57.776Z,5.87
2019-01-08T01:44:29.090Z,5.88
2019-01-08T01:46:59.608Z,5.87
2019-01-08T01:49:29.238Z,5.86
2019-01-08T01:52:06.892Z,5.88
2019-01-08T01:54:36.725Z,5.92
2019-01-08T01:57:05.945Z,5.91
2019-01-08T01:59:35.465Z,5.94
2019-01-08T02:02:05.051Z,5.88
2019-01-08T02:04:39.528Z,5.92
2019-01-08T02:07:11.126Z,5.91
2019-01-08T02:09:40.385Z,5.89
2019-01-08T02:12:11.109Z,5.84
2019-01-08T02:14:40.953Z,5.90
2019-01-08T02:17:10.987Z,5.88
2019-01-08T02:19:41.308Z,5.94
2019-01-08T02:22:13.568Z,5.99
2019-01-08T02:24:48.259Z,5.99
2019-01-08T02:27:17.848Z,5.91
2019-01-08T02:29:49.352Z,5.97
2019-01-08T02:32:23.446Z,5.95
2019-01-08T02:34:53.527Z,5.92
2019-01-08T02:37:24.934Z,5.85
2019-01-08T02:39:59.439Z,5.91
2019-01-08T02:42:30.505Z,5.92
2019-01-08T02:45:01.155Z,5.94
2019-01-08T02:47:31.168Z,5.90
2019-01-08T02:50:00.772Z,5.98
2019-01-08T02:52:30.045Z,6.01
2019-01-08T02:55:00.759Z,5.94
2019-01-08T02:57:30.348Z,5.98
2019-01-08T03:00:02.011Z,6.00
2019-01-08T03:02:31.494Z,6.03
2019-01-08T03:05:00.853Z,6.03
2019-01-08T03:07:30.376Z,6.06
2019-01-08T03:10:01.979Z,6.05
2019-01-08T03:12:33.454Z,6.08
2019-01-08T03:15:03.969Z,5.93
2019-01-08T03:17:33.227Z,6.02
2019-01-08T03:20:02.738Z,6.02
2019-01-08T03:22:32.245Z,6.07
2019-01-08T03:25:04.579Z,6.01
2019-01-08T03:27:39.123Z,6.10
2019-01-08T03:30:09.749Z,6.02
2019-01-08T03:32:39.787Z,6.05
2019-01-08T03:35:09.337Z,6.05
2019-01-08T03:37:39.549Z,6.05
2019-01-08T03:40:10.558Z,6.10
2019-01-08T03:42:42.718Z,6.11
2019-01-08T03:45:12.403Z,6.19
2019-01-08T03:47:42.351Z,6.28
2019-01-08T03:50:12.717Z,6.30
2019-01-08T03:52:41.977Z,6.26
2019-01-08T03:55:12.279Z,6.35
2019-01-08T03:57:41.852Z,6.33
2019-01-08T04:00:11.936Z,6.35
2019-01-08T04:02:44.331Z,6.34
2019-01-08T04:05:13.557Z,6.43
2019-01-08T04:07:44.693Z,6.45
2019-01-08T04:10:15.710Z,6.49
2019-01-08T04:12:47.276Z,6.47
2019-01-08T04:15:18.493Z,6.48
2019-01-08T04:17:47.768Z,6.47
2019-01-08T04:20:19.257Z,6.39
2019-01-08T04:22:48.517Z,6.35
2019-01-08T04:25:19.301Z,6.31
2019-01-08T04:27:49.619Z,6.15
2019-01-08T04:30:22.779Z,6.02
2019-01-08T04:32:52.298Z,5.98
2019-01-08T04:35:22.238Z,5.95
2019-01-08T04:37:51.862Z,5.94
2019-01-08T04:40:22.216Z,5.94
2019-01-08T04:42:53.620Z,5.99
2019-01-08T04:45:25.394Z,5.93
2019-01-08T04:47:59.731Z,5.94
2019-01-08T04:50:30.048Z,5.93
2019-01-08T04:53:02.784Z,5.85
2019-01-08T04:55:35.447Z,5.78
2019-01-08T04:58:06.794Z,5.84
2019-01-08T05:00:37.646Z,5.78
2019-01-08T05:03:09.393Z,5.85
2019-01-08T05:05:38.607Z,5.88
2019-01-08T05:08:08.126Z,5.72
2019-01-08T05:10:37.635Z,5.84
2019-01-08T05:13:07.033Z,6.02
2019-01-08T05:15:36.554Z,5.99
2019-01-08T05:18:06.535Z,6.06
2019-01-08T05:20:43.528Z,6.07
2019-01-08T05:23:13.266Z,6.06
2019-01-08T05:25:48.789Z,5.96
2019-01-08T05:28:18.139Z,6.07
2019-01-08T05:30:50.439Z,6.08
2019-01-08T05:33:20.806Z,6.08
2019-01-08T05:35:52.784Z,6.07
2019-01-08T05:38:24.228Z,6.03
2019-01-08T05:40:55.449Z,6.01
2019-01-08T05:43:25.999Z,6.05
2019-01-08T05:45:55.227Z,6.05
2019-01-08T05:48:25.498Z,6.10
2019-01-08T05:50:55.363Z,6.08
2019-01-08T05:53:24.614Z,6.10
2019-01-08T05:55:55.537Z,6.06
2019-01-08T05:58:27.103Z,6.04
2019-01-08T06:00:57.002Z,6.11
2019-01-08T06:03:26.252Z,6.14
2019-01-08T06:05:56.697Z,6.06
2019-01-08T06:08:26.090Z,6.13
2019-01-08T06:10:59.185Z,6.10
2019-01-08T06:13:33.269Z,6.03
2019-01-08T06:16:05.886Z,5.93
2019-01-08T06:18:37.716Z,6.02
2019-01-08T06:21:08.275Z,6.05
2019-01-08T06:23:38.179Z,5.94
2019-01-08T06:26:12.163Z,5.89
2019-01-08T06:28:41.981Z,5.86
2019-01-08T06:31:11.201Z,5.83
2019-01-08T06:33:40.510Z,5.88
2019-01-08T06:36:14.459Z,5.76
2019-01-08T06:38:50.617Z,5.82
2019-01-08T06:41:21.051Z,5.79
2019-01-08T06:43:52.439Z,5.79
2019-01-08T06:46:24.304Z,5.80
2019-01-08T06:48:55.191Z,5.83
2019-01-08T06:51:24.922Z,5.80
2019-01-08T06:53:54.159Z,5.90
2019-01-08T06:56:25.584Z,5.84
2019-01-08T06:58:54.932Z,5.86
2019-01-08T07:01:24.190Z,5.92
2019-01-08T07:03:59.223Z,5.91
2019-01-08T07:06:35.816Z,5.90
2019-01-08T07:09:08.547Z,5.92
2019-01-08T07:11:45.386Z,5.82
2019-01-08T07:14:31.227Z,5.84
2019-01-08T07:17:29.004Z,5.86
2019-01-08T07:20:30.372Z,5.74
2019-01-08T07:23:11.183Z,5.78
2019-01-08T07:25:52.607Z,5.77
2019-01-08T07:28:29.446Z,5.81
2019-01-08T07:31:11.964Z,5.72
2019-01-08T07:33:41.318Z,5.68
2019-01-08T07:36:10.549Z,5.46
2019-01-08T07:38:39.765Z,5.50
2019-01-08T07:41:10.057Z,5.48
2019-01-08T07:43:39.277Z,5.48
2019-01-08T07:46:09.612Z,5.53
2019-01-08T07:48:40.170Z,5.51
2019-01-08T07:51:09.970Z,5.50
2019-01-08T07:53:40.083Z,5.37
2019-01-08T07:56:09.354Z,5.34
2019-01-08T07:58:38.764Z,5.36
2019-01-08T08:01:08.017Z,5.26
2019-01-08T08:03:37.234Z,5.27
2019-01-08T08:06:07.660Z,5.29
2019-01-08T08:08:38.743Z,5.26
2019-01-08T08:11:09.083Z,5.25
2019-01-08T08:13:39.131Z,5.21
2019-01-08T08:16:08.389Z,5.16
2019-01-08T08:18:41.268Z,5.18
2019-01-08T08:21:11.534Z,5.22
2019-01-08T08:23:41.277Z,5.22
2019-01-08T08:26:14.177Z,5.28
2019-01-08T08:28:43.404Z,5.32
2019-01-08T08:31:14.764Z,5.24
2019-01-08T08:33:46.232Z,5.27
2019-01-08T08:36:17.051Z,5.26
2019-01-08T08:38:46.585Z,5.32
2019-01-08T08:41:19.985Z,5.26
2019-01-08T08:43:53.814Z,5.27
2019-01-08T08:46:24.387Z,5.22
2019-01-08T08:48:54.364Z,5.15
2019-01-08T08:51:24.017Z,5.18
2019-01-08T08:53:53.622Z,5.16
2019-01-08T08:56:22.900Z,5.21
2019-01-08T08:58:52.533Z,5.24
2019-01-08T09:01:21.788Z,5.20
2019-01-08T09:03:52.871Z,5.19
2019-01-08T09:06:22.496Z,5.27
2019-01-08T09:08:51.753Z,5.18
2019-01-08T09:11:21.385Z,5.16
2019-01-08T09:13:50.607Z,5.31
2019-01-08T09:16:20.741Z,5.29
2019-01-08T09:18:50.008Z,5.39
2019-01-08T09:21:19.336Z,5.47
2019-01-08T09:23:48.853Z,5.53
2019-01-08T09:26:20.045Z,5.55
2019-01-08T09:28:50.575Z,5.59
2019-01-08T09:31:19.900Z,5.62
2019-01-08T09:33:49.162Z,5.68
2019-01-08T09:36:18.849Z,5.58
2019-01-08T09:38:48.675Z,5.67
2019-01-08T09:41:18.525Z,5.68
2019-01-08T09:43:48.036Z,5.63
2019-01-08T09:46:18.077Z,5.65
2019-01-08T09:48:48.610Z,5.61
2019-01-08T09:51:18.295Z,5.64
2019-01-08T09:53:47.527Z,5.60
2019-01-08T09:56:17.147Z,5.63
2019-01-08T09:58:46.399Z,5.68
2019-01-08T10:01:23.556Z,5.72
2019-01-08T10:03:46.614Z,5.64
2019-01-08T10:06:15.887Z,5.70
2019-01-08T10:08:51.749Z,5.75
2019-01-08T10:11:21.530Z,5.73
2019-01-08T10:13:51.772Z,5.68
2019-01-08T10:16:27.083Z,5.64
2019-01-08T10:19:01.246Z,5.67
2019-01-08T10:22:02.620Z,5.69
2019-01-08T10:24:43.874Z,5.73
2019-01-08T10:27:36.968Z,5.71
2019-01-08T10:30:33.085Z,5.68
2019-01-08T10:33:35.218Z,5.68
2019-01-08T10:36:08.075Z,5.73
2019-01-08T10:38:41.659Z,5.71
2019-01-08T10:41:32.594Z,5.67
2019-01-08T10:44:02.465Z,5.77
2019-01-08T10:46:37.401Z,5.80
2019-01-08T10:49:02.920Z,5.77
2019-01-08T10:51:34.688Z,5.87
2019-01-08T10:54:05.229Z,5.91
2019-01-08T10:56:34.587Z,6.02
2019-01-08T10:59:07.718Z,6.02
2019-01-08T11:01:40.658Z,6.02
2019-01-08T11:04:07.402Z,6.01
2019-01-08T11:06:36.641Z,6.00
2019-01-08T11:09:08.291Z,6.00
2019-01-08T11:11:39.062Z,6.00
2019-01-08T11:14:10.745Z,6.05
2019-01-08T11:16:46.398Z,5.98
2019-01-08T11:19:30.424Z,6.03
2019-01-08T11:22:09.416Z,6.07
2019-01-08T11:24:48.819Z,5.99
2019-01-08T11:27:28.825Z,6.02
2019-01-08T11:30:36.797Z,6.12
2019-01-08T11:33:09.814Z,6.15
2019-01-08T11:35:42.794Z,6.23
2019-01-08T11:38:22.872Z,6.22
2019-01-08T11:41:11.885Z,6.26
2019-01-08T11:43:42.935Z,6.26
2019-01-08T11:46:12.230Z,6.26
2019-01-08T11:48:48.969Z,6.27
2019-01-08T11:51:19.977Z,6.24
2019-01-08T11:54:09.664Z,6.24
2019-01-08T11:56:41.074Z,6.27
2019-01-08T11:59:10.631Z,6.25
2019-01-08T12:01:39.854Z,6.19
2019-01-08T12:04:09.426Z,6.23
2019-01-08T12:06:38.905Z,6.24
2019-01-08T12:09:08.354Z,6.22
2019-01-08T12:11:37.824Z,6.24
2019-01-08T12:14:09.977Z,6.25
2019-01-08T12:16:48.199Z,6.23
2019-01-08T12:19:21.274Z,6.23
2019-01-08T12:21:53.672Z,6.18
2019-01-08T12:24:30.728Z,6.16
2019-01-08T12:27:00.143Z,6.16
2019-01-08T12:29:31.126Z,6.13
2019-01-08T12:32:17.652Z,6.14
2019-01-08T12:34:49.209Z,6.15
2019-01-08T12:37:18.757Z,6.22
2019-01-08T12:39:48.147Z,6.23
2019-01-08T12:42:17.411Z,6.25
2019-01-08T12:44:50.130Z,6.30
2019-01-08T12:47:33.899Z,6.35
2019-01-08T12:50:13.567Z,6.35
2019-01-08T12:52:46.446Z,6.30
2019-01-08T12:55:16.434Z,6.33
2019-01-08T12:57:59.410Z,6.40
2019-01-08T13:00:28.652Z,6.42
2019-01-08T13:02:57.879Z,6.51
2019-01-08T13:05:27.166Z,6.49
2019-01-08T13:07:56.480Z,6.46
2019-01-08T13:10:25.726Z,6.48
2019-01-08T13:12:54.953Z,6.46
2019-01-08T13:15:24.232Z,6.45
2019-01-08T13:17:53.520Z,6.36
2019-01-08T13:20:22.892Z,6.37
2019-01-08T13:22:52.489Z,6.33
2019-01-08T13:25:23.018Z,6.27
2019-01-08T13:27:52.599Z,6.21
2019-01-08T13:30:24.127Z,6.18
2019-01-08T13:32:53.590Z,6.20
2019-01-08T13:35:23.123Z,6.15
2019-01-08T13:37:52.374Z,6.15
2019-01-08T13:40:21.627Z,6.23
2019-01-08T13:42:50.867Z,6.32
2019-01-08T13:45:20.104Z,6.31
2019-01-08T13:47:49.331Z,6.30
2019-01-08T13:50:18.591Z,6.38
2019-01-08T13:52:48.986Z,6.38
2019-01-08T13:55:18.241Z,6.37
2019-01-08T13:57:47.564Z,6.42
2019-01-08T14:00:16.996Z,6.39
2019-01-08T14:02:46.203Z,6.39
2019-01-08T14:05:15.440Z,6.37
2019-01-08T14:07:44.660Z,6.36
2019-01-08T14:10:13.913Z,6.31
2019-01-08T14:12:43.512Z,6.31
2019-01-08T14:15:12.763Z,6.24
2019-01-08T14:17:43.835Z,6.13
2019-01-08T14:20:13.503Z,6.00
2019-01-08T14:22:43.278Z,5.91
2019-01-08T14:25:17.513Z,5.84
2019-01-08T14:27:47.112Z,5.78
2019-01-08T14:30:16.369Z,5.69
2019-01-08T14:32:46.130Z,5.62
2019-01-08T14:35:15.678Z,5.56
2019-01-08T14:37:45.153Z,5.45
2019-01-08T14:40:14.409Z,5.43
2019-01-08T14:42:43.630Z,5.44
2019-01-08T14:45:14.182Z,5.46
2019-01-08T14:47:43.435Z,5.39
2019-01-08T14:50:12.668Z,5.32
2019-01-08T14:52:41.921Z,5.30
2019-01-08T14:55:12.772Z,5.25
2019-01-08T14:57:50.657Z,5.27
2019-01-08T15:00:23.568Z,5.21
2019-01-08T15:02:53.229Z,5.21
2019-01-08T15:05:25.591Z,5.25
2019-01-08T15:08:01.804Z,5.27
2019-01-08T15:10:34.619Z,5.31
2019-01-08T15:13:13.560Z,5.38
2019-01-08T15:15:45.387Z,5.44
2019-01-08T15:18:23.698Z,5.51
2019-01-08T15:21:00.354Z,5.56
2019-01-08T15:23:32.643Z,5.61
2019-01-08T15:26:05.069Z,5.64
2019-01-08T15:28:34.288Z,5.67
2019-01-08T15:31:04.640Z,5.66
2019-01-08T15:33:38.102Z,5.73
2019-01-08T15:36:09.531Z,5.76
2019-01-08T15:38:41.160Z,5.73
2019-01-08T15:41:10.911Z,5.79
2019-01-08T15:43:42.797Z,5.78
2019-01-08T15:46:20.093Z,5.78
2019-01-08T15:48:51.089Z,5.63
2019-01-08T15:51:20.420Z,5.57
2019-01-08T15:53:49.700Z,5.49
2019-01-08T15:56:19.680Z,5.50
2019-01-08T15:58:48.905Z,5.41
2019-01-08T16:01:18.155Z,5.36
2019-01-08T16:03:47.410Z,5.38
2019-01-08T16:06:16.989Z,5.38
2019-01-08T16:08:46.629Z,5.42
2019-01-08T16:11:15.877Z,5.48
2019-01-08T16:13:45.948Z,5.47
2019-01-08T16:16:15.288Z,5.42
2019-01-08T16:18:51.589Z,5.34
2019-01-08T16:21:35.484Z,5.29
2019-01-08T16:24:23.287Z,5.15
2019-01-08T16:26:55.316Z,5.07
2019-01-08T16:29:29.028Z,4.83
2019-01-08T16:32:07.490Z,4.77
2019-01-08T16:34:36.724Z,4.68
2019-01-08T16:37:07.872Z,4.57
2019-01-08T16:39:38.743Z,4.52
2019-01-08T16:42:08.050Z,4.46
2019-01-08T16:44:47.418Z,4.37
2019-01-08T16:47:22.465Z,4.34
2019-01-08T16:50:07.732Z,4.52
2019-01-08T16:52:36.999Z,4.50
2019-01-08T16:55:11.539Z,4.49
2019-01-08T16:57:40.935Z,4.41
2019-01-08T17:00:16.629Z,4.52
2019-01-08T17:02:59.835Z,4.56
2019-01-08T17:05:34.366Z,4.58
2019-01-08T17:08:03.692Z,4.60
2019-01-08T17:10:34.744Z,4.67
2019-01-08T17:13:04.629Z,4.60
2019-01-08T17:15:35.337Z,4.70
2019-01-08T17:18:05.176Z,4.74
2019-01-08T17:20:34.719Z,4.78
2019-01-08T17:23:04.234Z,4.78
2019-01-08T17:25:37.201Z,4.79
2019-01-08T17:28:07.886Z,4.79
2019-01-08T17:30:38.142Z,4.83
2019-01-08T17:33:08.676Z,4.87
2019-01-08T17:35:41.864Z,4.97
2019-01-08T17:38:11.402Z,4.99
2019-01-08T17:40:44.283Z,5.02
2019-01-08T17:43:15.071Z,5.14
2019-01-08T17:45:50.694Z,5.18
2019-01-08T17:48:21.890Z,5.25
2019-01-08T17:50:51.834Z,5.26
2019-01-08T17:53:21.225Z,5.18
2019-01-08T17:56:02.815Z,5.24
2019-01-08T17:58:36.824Z,5.21
2019-01-08T18:01:11.023Z,5.20
2019-01-08T18:03:43.213Z,5.17
2019-01-08T18:06:18.183Z,5.18
2019-01-08T18:08:49.433Z,5.14
2019-01-08T18:11:22.593Z,5.13
2019-01-08T18:13:56.125Z,5.10
2019-01-08T18:16:52.317Z,5.07
2019-01-08T18:19:22.517Z,4.97
2019-01-08T18:21:53.912Z,4.91
2019-01-08T18:24:25.500Z,4.75
2019-01-08T18:26:55.268Z,4.66
2019-01-08T18:29:25.028Z,4.54
2019-01-08T18:31:56.459Z,4.52
2019-01-08T18:34:25.843Z,4.41
2019-01-08T18:36:57.966Z,4.52
2019-01-08T18:39:27.323Z,4.55
2019-01-08T18:41:57.190Z,4.60
2019-01-08T18:44:29.118Z,4.63
2019-01-08T18:47:07.812Z,4.67
2019-01-08T18:49:38.912Z,4.67
2019-01-08T18:52:11.442Z,4.71
2019-01-08T18:54:40.672Z,4.66
2019-01-08T18:57:10.959Z,4.72
2019-01-08T18:59:45.348Z,4.72
2019-01-08T19:02:16.078Z,4.73
2019-01-08T19:04:45.314Z,4.63
2019-01-08T19:07:15.212Z,4.51
2019-01-08T19:09:48.678Z,4.32
2019-01-08T19:12:23.623Z,4.10
2019-01-08T19:14:54.074Z,3.95
2019-01-08T19:17:28.107Z,3.95
2019-01-08T19:20:25.616Z,3.91
2019-01-08T19:23:05.454Z,3.85
2019-01-08T19:25:40.203Z,3.83
2019-01-08T19:28:34.875Z,3.86
2019-01-08T19:31:10.045Z,3.83
2019-01-08T19:33:48.344Z,3.87
2019-01-08T19:36:23.395Z,3.87
2019-01-08T19:39:10.443Z,3.92
2019-01-08T19:41:42.605Z,3.90
2019-01-08T19:44:30.959Z,3.94
2019-01-08T19:47:02.713Z,3.96
2019-01-08T19:49:37.943Z,4.03
2019-01-08T19:52:43.171Z,3.99
2019-01-08T19:55:14.052Z,4.02
2019-01-08T19:57:44.931Z,3.95
2019-01-08T20:00:20.165Z,3.98
2019-01-08T20:03:00.647Z,3.94
2019-01-08T20:05:37.265Z,4.02
2019-01-08T20:08:07.075Z,4.08
2019-01-08T20:10:40.621Z,4.10
2019-01-08T20:13:19.256Z,4.16
2019-01-08T20:15:57.890Z,4.22
2019-01-08T20:18:35.510Z,4.27
2019-01-08T20:21:07.794Z,4.27
2019-01-08T20:23:41.336Z,4.24
2019-01-08T20:26:12.520Z,4.22
2019-01-08T20:28:45.026Z,4.23
2019-01-08T20:31:19.968Z,4.25
2019-01-08T20:36:39.245Z,4.24
2019-01-08T20:39:13.940Z,4.18
2019-01-08T20:41:45.643Z,4.15
2019-01-08T20:44:18.736Z,4.18
2019-01-08T20:46:49.861Z,4.17
2019-01-08T20:49:21.832Z,4.12
2019-01-08T20:51:56.611Z,4.10
2019-01-08T20:54:25.996Z,4.03
2019-01-08T20:56:56.317Z,3.98
2019-01-08T20:59:26.567Z,3.87
2019-01-08T21:01:55.915Z,3.85
2019-01-08T21:04:35.865Z,3.80
2019-01-08T21:10:41.696Z,3.81
2019-01-08T21:13:30.719Z,3.84
2019-01-08T21:16:00.911Z,3.94
2019-01-08T21:18:32.050Z,3.98
2019-01-08T21:21:06.944Z,4.09
2019-01-08T21:23:36.796Z,4.10
2019-01-08T21:26:06.316Z,4.12
2019-01-08T21:28:40.045Z,4.00
2019-01-08T21:31:28.193Z,3.99
2019-01-08T21:34:13.360Z,3.85
2019-01-08T21:37:09.546Z,3.73
2019-01-08T21:39:49.317Z,3.65
2019-01-08T21:42:48.187Z,3.58
2019-01-08T21:45:31.235Z,3.49
2019-01-08T21:48:09.980Z,3.42
2019-01-08T21:50:41.569Z,3.33
2019-01-08T21:53:16.143Z,3.27
2019-01-08T21:55:46.766Z,3.26
2019-01-08T21:58:24.396Z,3.31
2019-01-08T22:00:54.621Z,3.34
2019-01-08T22:03:24.236Z,3.33
2019-01-08T22:05:54.928Z,3.26
2019-01-08T22:08:26.243Z,3.23
2019-01-08T22:10:57.671Z,3.22
2019-01-08T22:13:29.682Z,3.20
2019-01-08T22:16:03.419Z,3.25
2019-01-08T22:18:36.314Z,3.28
2019-01-08T22:21:07.687Z,3.24
2019-01-08T22:23:39.163Z,3.30
2019-01-08T22:26:16.522Z,3.28
2019-01-08T22:28:48.554Z,3.31
2019-01-08T22:31:20.544Z,3.35
2019-01-08T22:33:53.645Z,3.33
2019-01-08T22:36:26.117Z,3.28
2019-01-08T22:39:00.145Z,3.30
2019-01-08T22:41:31.435Z,3.28
2019-01-08T22:44:04.731Z,3.30
2019-01-08T22:46:34.999Z,3.38
2019-01-08T22:49:08.491Z,3.48
2019-01-08T22:51:48.721Z,3.50
2019-01-08T22:54:19.812Z,3.62
2019-01-08T22:56:57.490Z,3.72
2019-01-08T22:59:27.317Z,3.76
2019-01-08T23:02:20.995Z,3.83
2019-01-08T23:04:59.549Z,3.81
2019-01-08T23:07:40.084Z,3.77
2019-01-08T23:10:44.828Z,3.74
2019-01-08T23:13:27.223Z,3.71
2019-01-08T23:16:04.503Z,3.67
2019-01-08T23:18:37.781Z,3.60
2019-01-08T23:21:15.110Z,3.54
2019-01-08T23:23:44.456Z,3.50
2019-01-08T23:26:16.453Z,3.45
2019-01-08T23:28:50.508Z,3.43
2019-01-08T23:31:29.936Z,3.38
2019-01-08T23:34:40.161Z,3.37
2019-01-08T23:37:16.022Z,3.31
2019-01-08T23:39:51.121Z,3.23
2019-01-08T23:42:22.573Z,3.20
2019-01-08T23:44:55.800Z,3.15
2019-01-08T23:47:30.564Z,3.14
2019-01-08T23:50:02.525Z,3.13
2019-01-08T23:52:49.098Z,3.20
2019-01-08T23:55:24.332Z,3.14
2019-01-08T23:57:58.373Z,3.11
